sensor_id;sensor_type;location;lat;lon;timestamp;P1;durP1;ratioP1;P2;durP2;ratioP2
71106;SDS011;58763;47.982;11.516;2023-07-20T00:00:51;5.43;;;2.38;;
71106;SDS011;58763;47.982;11.516;2023-07-20T00:03:19;6.22;;;2.13;;
71106;SDS011;58763;47.982;11.516;2023-07-20T00:05:48;7.30;;;2.17;;
71106;SDS011;58763;47.982;11.516;2023-07-20T00:08:15;4.30;;;2.22;;
71106;SDS011;58763;47.982;11.516;2023-07-20T00:10:41;5.35;;;2.35;;
71106;SDS011;58763;47.982;11.516;2023-07-20T00:13:07;5.25;;;2.45;;
71106;SDS011;58763;47.982;11.516;2023-07-20T00:15:33;4.30;;;1.90;;
71106;SDS011;58763;47.982;11.516;2023-07-20T00:17:58;10.20;;;2.13;;
71106;SDS011;58763;47.982;11.516;2023-07-20T00:20:24;4.30;;;1.98;;
71106;SDS011;58763;47.982;11.516;2023-07-20T00:22:51;8.68;;;2.15;;
71106;SDS011;58763;47.982;11.516;2023-07-20T00:25:17;8.35;;;2.45;;
71106;SDS011;58763;47.982;11.516;2023-07-20T00:27:43;12.30;;;2.75;;
71106;SDS011;58763;47.982;11.516;2023-07-20T00:30:09;7.07;;;2.40;;
71106;SDS011;58763;47.982;11.516;2023-07-20T00:32:35;8.50;;;2.40;;
71106;SDS011;58763;47.982;11.516;2023-07-20T00:35:00;6.78;;;2.60;;
71106;SDS011;58763;47.982;11.516;2023-07-20T00:37:26;5.78;;;2.40;;
71106;SDS011;58763;47.982;11.516;2023-07-20T00:39:52;9.38;;;2.92;;
71106;SDS011;58763;47.982;11.516;2023-07-20T00:42:18;6.43;;;2.78;;
71106;SDS011;58763;47.982;11.516;2023-07-20T00:44:44;6.85;;;2.90;;
71106;SDS011;58763;47.982;11.516;2023-07-20T00:47:09;6.80;;;2.67;;
71106;SDS011;58763;47.982;11.516;2023-07-20T00:49:35;5.35;;;2.60;;
71106;SDS011;58763;47.982;11.516;2023-07-20T00:52:01;6.00;;;2.83;;
71106;SDS011;58763;47.982;11.516;2023-07-20T00:54:30;6.30;;;2.50;;
71106;SDS011;58763;47.982;11.516;2023-07-20T00:56:55;8.02;;;2.92;;
71106;SDS011;58763;47.982;11.516;2023-07-20T00:59:21;6.55;;;2.95;;
71106;SDS011;58763;47.982;11.516;2023-07-20T01:01:47;5.70;;;2.78;;
71106;SDS011;58763;47.982;11.516;2023-07-20T01:04:13;5.25;;;2.78;;
71106;SDS011;58763;47.982;11.516;2023-07-20T01:14:25;6.38;;;2.78;;
71106;SDS011;58763;47.982;11.516;2023-07-20T01:16:50;7.22;;;2.85;;
71106;SDS011;58763;47.982;11.516;2023-07-20T01:19:17;5.50;;;2.78;;
71106;SDS011;58763;47.982;11.516;2023-07-20T01:21:57;7.30;;;2.53;;
71106;SDS011;58763;47.982;11.516;2023-07-20T01:32:34;7.00;;;2.60;;
71106;SDS011;58763;47.982;11.516;2023-07-20T01:35:01;5.47;;;2.38;;
71106;SDS011;58763;47.982;11.516;2023-07-20T01:37:29;7.47;;;2.72;;
71106;SDS011;58763;47.982;11.516;2023-07-20T01:39:56;7.47;;;2.80;;
71106;SDS011;58763;47.982;11.516;2023-07-20T01:42:22;6.85;;;2.40;;
71106;SDS011;58763;47.982;11.516;2023-07-20T01:44:52;7.22;;;2.78;;
71106;SDS011;58763;47.982;11.516;2023-07-20T01:47:18;5.72;;;2.42;;
71106;SDS011;58763;47.982;11.516;2023-07-20T01:49:44;7.70;;;3.00;;
71106;SDS011;58763;47.982;11.516;2023-07-20T01:52:10;5.10;;;2.65;;
71106;SDS011;58763;47.982;11.516;2023-07-20T01:54:35;5.80;;;2.70;;
71106;SDS011;58763;47.982;11.516;2023-07-20T01:57:01;7.07;;;2.88;;
71106;SDS011;58763;47.982;11.516;2023-07-20T01:59:27;5.72;;;2.35;;
71106;SDS011;58763;47.982;11.516;2023-07-20T02:01:52;5.68;;;2.28;;
71106;SDS011;58763;47.982;11.516;2023-07-20T02:04:18;6.63;;;2.50;;
71106;SDS011;58763;47.982;11.516;2023-07-20T02:06:44;5.93;;;2.83;;
71106;SDS011;58763;47.982;11.516;2023-07-20T02:09:09;5.43;;;2.35;;
71106;SDS011;58763;47.982;11.516;2023-07-20T02:11:35;4.28;;;2.15;;
71106;SDS011;58763;47.982;11.516;2023-07-20T02:14:00;6.18;;;2.33;;
71106;SDS011;58763;47.982;11.516;2023-07-20T02:16:26;4.35;;;2.10;;
71106;SDS011;58763;47.982;11.516;2023-07-20T02:18:52;8.13;;;2.30;;
71106;SDS011;58763;47.982;11.516;2023-07-20T02:21:18;4.93;;;2.17;;
71106;SDS011;58763;47.982;11.516;2023-07-20T02:23:44;5.63;;;2.20;;
71106;SDS011;58763;47.982;11.516;2023-07-20T02:26:09;10.20;;;2.22;;
71106;SDS011;58763;47.982;11.516;2023-07-20T02:28:35;7.05;;;2.20;;
71106;SDS011;58763;47.982;11.516;2023-07-20T02:31:00;6.07;;;1.88;;
71106;SDS011;58763;47.982;11.516;2023-07-20T02:33:26;5.00;;;1.95;;
71106;SDS011;58763;47.982;11.516;2023-07-20T02:35:51;6.03;;;2.00;;
71106;SDS011;58763;47.982;11.516;2023-07-20T02:38:17;5.65;;;2.20;;
71106;SDS011;58763;47.982;11.516;2023-07-20T02:40:42;5.35;;;2.00;;
71106;SDS011;58763;47.982;11.516;2023-07-20T02:43:08;7.35;;;2.42;;
71106;SDS011;58763;47.982;11.516;2023-07-20T02:45:35;4.90;;;2.20;;
71106;SDS011;58763;47.982;11.516;2023-07-20T02:48:00;4.68;;;2.38;;
71106;SDS011;58763;47.982;11.516;2023-07-20T02:50:27;7.80;;;2.30;;
71106;SDS011;58763;47.982;11.516;2023-07-20T02:52:53;6.32;;;2.30;;
71106;SDS011;58763;47.982;11.516;2023-07-20T02:55:18;5.95;;;2.17;;
71106;SDS011;58763;47.982;11.516;2023-07-20T02:57:44;5.40;;;1.90;;
71106;SDS011;58763;47.982;11.516;2023-07-20T03:00:10;5.15;;;2.20;;
71106;SDS011;58763;47.982;11.516;2023-07-20T03:02:36;5.97;;;2.38;;
71106;SDS011;58763;47.982;11.516;2023-07-20T03:05:02;4.03;;;1.98;;
71106;SDS011;58763;47.982;11.516;2023-07-20T03:07:31;6.20;;;2.10;;
71106;SDS011;58763;47.982;11.516;2023-07-20T03:09:56;6.18;;;1.65;;
71106;SDS011;58763;47.982;11.516;2023-07-20T03:12:22;5.68;;;1.77;;
71106;SDS011;58763;47.982;11.516;2023-07-20T03:14:48;4.28;;;1.50;;
71106;SDS011;58763;47.982;11.516;2023-07-20T03:17:13;3.75;;;1.63;;
71106;SDS011;58763;47.982;11.516;2023-07-20T03:19:38;4.65;;;1.60;;
71106;SDS011;58763;47.982;11.516;2023-07-20T03:22:04;4.15;;;1.42;;
71106;SDS011;58763;47.982;11.516;2023-07-20T03:24:30;3.58;;;1.30;;
71106;SDS011;58763;47.982;11.516;2023-07-20T03:26:55;5.15;;;1.70;;
71106;SDS011;58763;47.982;11.516;2023-07-20T03:29:21;5.05;;;1.30;;
71106;SDS011;58763;47.982;11.516;2023-07-20T03:31:46;3.03;;;1.27;;
71106;SDS011;58763;47.982;11.516;2023-07-20T03:34:13;3.15;;;1.38;;
71106;SDS011;58763;47.982;11.516;2023-07-20T03:36:39;4.05;;;1.52;;
71106;SDS011;58763;47.982;11.516;2023-07-20T03:39:04;4.43;;;1.77;;
71106;SDS011;58763;47.982;11.516;2023-07-20T03:41:30;4.25;;;1.15;;
71106;SDS011;58763;47.982;11.516;2023-07-20T03:43:56;5.97;;;1.27;;
71106;SDS011;58763;47.982;11.516;2023-07-20T03:46:21;5.50;;;1.30;;
71106;SDS011;58763;47.982;11.516;2023-07-20T03:48:47;4.53;;;1.52;;
71106;SDS011;58763;47.982;11.516;2023-07-20T03:51:12;4.88;;;1.50;;
71106;SDS011;58763;47.982;11.516;2023-07-20T03:53:38;4.35;;;1.50;;
71106;SDS011;58763;47.982;11.516;2023-07-20T03:56:04;3.75;;;1.55;;
71106;SDS011;58763;47.982;11.516;2023-07-20T03:58:30;9.75;;;1.60;;
71106;SDS011;58763;47.982;11.516;2023-07-20T04:00:57;9.90;;;2.00;;
71106;SDS011;58763;47.982;11.516;2023-07-20T04:03:22;5.18;;;1.20;;
71106;SDS011;58763;47.982;11.516;2023-07-20T04:05:52;4.45;;;1.48;;
71106;SDS011;58763;47.982;11.516;2023-07-20T04:08:21;4.47;;;1.55;;
71106;SDS011;58763;47.982;11.516;2023-07-20T04:10:48;4.78;;;1.52;;
71106;SDS011;58763;47.982;11.516;2023-07-20T04:13:13;4.13;;;1.20;;
71106;SDS011;58763;47.982;11.516;2023-07-20T04:15:40;3.28;;;1.50;;
71106;SDS011;58763;47.982;11.516;2023-07-20T04:18:05;5.25;;;1.77;;
71106;SDS011;58763;47.982;11.516;2023-07-20T04:20:31;5.80;;;1.50;;
71106;SDS011;58763;47.982;11.516;2023-07-20T04:22:56;3.88;;;1.35;;
71106;SDS011;58763;47.982;11.516;2023-07-20T04:25:22;4.53;;;1.58;;
71106;SDS011;58763;47.982;11.516;2023-07-20T04:27:47;4.70;;;1.52;;
71106;SDS011;58763;47.982;11.516;2023-07-20T04:30:13;3.50;;;1.42;;
71106;SDS011;58763;47.982;11.516;2023-07-20T04:32:40;3.45;;;1.55;;
71106;SDS011;58763;47.982;11.516;2023-07-20T04:35:09;4.13;;;1.40;;
71106;SDS011;58763;47.982;11.516;2023-07-20T04:37:34;4.28;;;1.50;;
71106;SDS011;58763;47.982;11.516;2023-07-20T04:40:00;4.05;;;1.67;;
71106;SDS011;58763;47.982;11.516;2023-07-20T04:42:26;4.85;;;1.70;;
71106;SDS011;58763;47.982;11.516;2023-07-20T04:44:52;3.38;;;1.50;;
71106;SDS011;58763;47.982;11.516;2023-07-20T04:47:17;4.80;;;1.63;;
71106;SDS011;58763;47.982;11.516;2023-07-20T04:49:43;6.60;;;1.95;;
71106;SDS011;58763;47.982;11.516;2023-07-20T04:52:08;4.70;;;1.63;;
71106;SDS011;58763;47.982;11.516;2023-07-20T04:54:34;5.20;;;1.73;;
71106;SDS011;58763;47.982;11.516;2023-07-20T04:56:59;7.40;;;1.95;;
71106;SDS011;58763;47.982;11.516;2023-07-20T04:59:25;4.50;;;1.60;;
71106;SDS011;58763;47.982;11.516;2023-07-20T05:01:51;4.28;;;1.65;;
71106;SDS011;58763;47.982;11.516;2023-07-20T05:04:16;5.13;;;1.75;;
71106;SDS011;58763;47.982;11.516;2023-07-20T05:06:42;5.60;;;1.88;;
71106;SDS011;58763;47.982;11.516;2023-07-20T05:09:07;6.13;;;1.95;;
71106;SDS011;58763;47.982;11.516;2023-07-20T05:11:33;6.75;;;1.75;;
71106;SDS011;58763;47.982;11.516;2023-07-20T05:13:59;3.92;;;1.58;;
71106;SDS011;58763;47.982;11.516;2023-07-20T05:16:25;5.90;;;2.00;;
71106;SDS011;58763;47.982;11.516;2023-07-20T05:18:50;5.72;;;1.83;;
71106;SDS011;58763;47.982;11.516;2023-07-20T05:21:16;3.75;;;2.00;;
71106;SDS011;58763;47.982;11.516;2023-07-20T05:23:42;3.70;;;1.70;;
71106;SDS011;58763;47.982;11.516;2023-07-20T05:26:07;5.30;;;1.75;;
71106;SDS011;58763;47.982;11.516;2023-07-20T05:28:33;4.40;;;1.83;;
71106;SDS011;58763;47.982;11.516;2023-07-20T05:30:59;5.45;;;1.88;;
71106;SDS011;58763;47.982;11.516;2023-07-20T05:33:28;6.30;;;1.90;;
71106;SDS011;58763;47.982;11.516;2023-07-20T05:35:53;5.35;;;2.10;;
71106;SDS011;58763;47.982;11.516;2023-07-20T05:38:20;4.15;;;1.90;;
71106;SDS011;58763;47.982;11.516;2023-07-20T05:40:45;4.80;;;1.60;;
71106;SDS011;58763;47.982;11.516;2023-07-20T05:43:12;6.40;;;1.80;;
71106;SDS011;58763;47.982;11.516;2023-07-20T05:45:42;6.00;;;1.80;;
71106;SDS011;58763;47.982;11.516;2023-07-20T05:48:08;5.22;;;1.73;;
71106;SDS011;58763;47.982;11.516;2023-07-20T05:50:36;4.78;;;1.85;;
71106;SDS011;58763;47.982;11.516;2023-07-20T05:53:03;4.70;;;1.98;;
71106;SDS011;58763;47.982;11.516;2023-07-20T05:55:29;4.88;;;2.08;;
71106;SDS011;58763;47.982;11.516;2023-07-20T05:57:54;6.70;;;2.03;;
71106;SDS011;58763;47.982;11.516;2023-07-20T06:00:21;4.80;;;1.65;;
71106;SDS011;58763;47.982;11.516;2023-07-20T06:02:52;6.13;;;2.05;;
71106;SDS011;58763;47.982;11.516;2023-07-20T06:05:19;5.68;;;2.00;;
71106;SDS011;58763;47.982;11.516;2023-07-20T06:07:46;4.50;;;2.00;;
71106;SDS011;58763;47.982;11.516;2023-07-20T06:10:11;4.70;;;2.15;;
71106;SDS011;58763;47.982;11.516;2023-07-20T06:12:37;4.90;;;2.05;;
71106;SDS011;58763;47.982;11.516;2023-07-20T06:15:03;4.30;;;2.25;;
71106;SDS011;58763;47.982;11.516;2023-07-20T06:17:30;5.43;;;1.90;;
71106;SDS011;58763;47.982;11.516;2023-07-20T06:19:55;7.22;;;2.25;;
71106;SDS011;58763;47.982;11.516;2023-07-20T06:22:21;5.75;;;1.90;;
71106;SDS011;58763;47.982;11.516;2023-07-20T06:24:46;4.50;;;2.10;;
71106;SDS011;58763;47.982;11.516;2023-07-20T06:27:12;5.07;;;2.50;;
71106;SDS011;58763;47.982;11.516;2023-07-20T06:29:38;5.30;;;1.90;;
71106;SDS011;58763;47.982;11.516;2023-07-20T06:32:05;5.53;;;2.35;;
71106;SDS011;58763;47.982;11.516;2023-07-20T06:34:31;5.93;;;2.40;;
71106;SDS011;58763;47.982;11.516;2023-07-20T06:37:02;5.28;;;1.88;;
71106;SDS011;58763;47.982;11.516;2023-07-20T06:39:29;6.10;;;2.40;;
71106;SDS011;58763;47.982;11.516;2023-07-20T06:41:54;7.28;;;2.40;;
71106;SDS011;58763;47.982;11.516;2023-07-20T06:44:20;5.45;;;2.40;;
71106;SDS011;58763;47.982;11.516;2023-07-20T06:46:46;5.38;;;2.28;;
71106;SDS011;58763;47.982;11.516;2023-07-20T06:49:15;4.22;;;2.20;;
71106;SDS011;58763;47.982;11.516;2023-07-20T06:51:49;5.63;;;2.28;;
71106;SDS011;58763;47.982;11.516;2023-07-20T06:54:15;4.95;;;2.15;;
71106;SDS011;58763;47.982;11.516;2023-07-20T06:56:40;4.40;;;2.05;;
71106;SDS011;58763;47.982;11.516;2023-07-20T06:59:06;4.75;;;2.10;;
71106;SDS011;58763;47.982;11.516;2023-07-20T07:01:32;4.28;;;2.30;;
71106;SDS011;58763;47.982;11.516;2023-07-20T07:03:57;7.32;;;2.47;;
71106;SDS011;58763;47.982;11.516;2023-07-20T07:06:23;5.95;;;2.20;;
71106;SDS011;58763;47.982;11.516;2023-07-20T07:08:49;4.60;;;2.10;;
71106;SDS011;58763;47.982;11.516;2023-07-20T07:11:14;4.93;;;2.30;;
71106;SDS011;58763;47.982;11.516;2023-07-20T07:13:40;5.63;;;2.40;;
71106;SDS011;58763;47.982;11.516;2023-07-20T07:16:05;4.53;;;2.17;;
71106;SDS011;58763;47.982;11.516;2023-07-20T07:18:31;6.40;;;2.42;;
71106;SDS011;58763;47.982;11.516;2023-07-20T07:20:56;7.07;;;2.53;;
71106;SDS011;58763;47.982;11.516;2023-07-20T07:23:22;4.63;;;2.28;;
71106;SDS011;58763;47.982;11.516;2023-07-20T07:25:48;6.70;;;2.70;;
71106;SDS011;58763;47.982;11.516;2023-07-20T07:28:14;6.03;;;2.25;;
71106;SDS011;58763;47.982;11.516;2023-07-20T07:30:40;4.78;;;2.00;;
71106;SDS011;58763;47.982;11.516;2023-07-20T07:33:05;5.15;;;2.20;;
71106;SDS011;58763;47.982;11.516;2023-07-20T07:35:31;5.88;;;2.50;;
71106;SDS011;58763;47.982;11.516;2023-07-20T07:37:56;5.15;;;2.55;;
71106;SDS011;58763;47.982;11.516;2023-07-20T07:40:25;6.32;;;2.17;;
71106;SDS011;58763;47.982;11.516;2023-07-20T07:42:50;7.85;;;2.95;;
71106;SDS011;58763;47.982;11.516;2023-07-20T07:45:17;6.35;;;2.10;;
71106;SDS011;58763;47.982;11.516;2023-07-20T07:47:42;6.95;;;2.50;;
71106;SDS011;58763;47.982;11.516;2023-07-20T07:50:08;4.95;;;2.22;;
71106;SDS011;58763;47.982;11.516;2023-07-20T07:52:35;5.82;;;2.28;;
71106;SDS011;58763;47.982;11.516;2023-07-20T07:55:00;6.93;;;2.25;;
71106;SDS011;58763;47.982;11.516;2023-07-20T07:57:26;5.85;;;2.45;;
71106;SDS011;58763;47.982;11.516;2023-07-20T07:59:51;5.00;;;2.08;;
71106;SDS011;58763;47.982;11.516;2023-07-20T08:02:17;7.88;;;2.60;;
71106;SDS011;58763;47.982;11.516;2023-07-20T08:04:42;4.90;;;2.10;;
71106;SDS011;58763;47.982;11.516;2023-07-20T08:07:08;7.20;;;2.42;;
71106;SDS011;58763;47.982;11.516;2023-07-20T08:09:34;5.75;;;2.17;;
71106;SDS011;58763;47.982;11.516;2023-07-20T08:12:00;6.85;;;2.22;;
71106;SDS011;58763;47.982;11.516;2023-07-20T08:14:25;4.65;;;2.35;;
71106;SDS011;58763;47.982;11.516;2023-07-20T08:16:51;5.10;;;2.05;;
71106;SDS011;58763;47.982;11.516;2023-07-20T08:19:16;4.85;;;2.10;;
71106;SDS011;58763;47.982;11.516;2023-07-20T08:21:42;4.47;;;2.22;;
71106;SDS011;58763;47.982;11.516;2023-07-20T08:24:08;8.02;;;2.40;;
71106;SDS011;58763;47.982;11.516;2023-07-20T08:26:33;5.47;;;2.15;;
71106;SDS011;58763;47.982;11.516;2023-07-20T08:28:59;5.95;;;2.05;;
71106;SDS011;58763;47.982;11.516;2023-07-20T08:31:24;4.63;;;2.40;;
71106;SDS011;58763;47.982;11.516;2023-07-20T08:33:50;4.90;;;2.20;;
71106;SDS011;58763;47.982;11.516;2023-07-20T08:36:16;5.10;;;2.25;;
71106;SDS011;58763;47.982;11.516;2023-07-20T08:38:42;4.15;;;1.95;;
71106;SDS011;58763;47.982;11.516;2023-07-20T08:41:08;4.70;;;1.88;;
71106;SDS011;58763;47.982;11.516;2023-07-20T08:43:34;6.30;;;2.30;;
71106;SDS011;58763;47.982;11.516;2023-07-20T08:46:02;4.95;;;2.20;;
71106;SDS011;58763;47.982;11.516;2023-07-20T08:48:29;5.88;;;2.17;;
71106;SDS011;58763;47.982;11.516;2023-07-20T08:50:56;5.22;;;2.08;;
71106;SDS011;58763;47.982;11.516;2023-07-20T08:53:23;4.03;;;2.00;;
71106;SDS011;58763;47.982;11.516;2023-07-20T08:55:50;5.57;;;1.88;;
71106;SDS011;58763;47.982;11.516;2023-07-20T08:58:18;4.25;;;2.05;;
71106;SDS011;58763;47.982;11.516;2023-07-20T09:00:45;8.02;;;2.10;;
71106;SDS011;58763;47.982;11.516;2023-07-20T09:03:11;5.50;;;2.00;;
71106;SDS011;58763;47.982;11.516;2023-07-20T09:05:37;4.28;;;2.25;;
71106;SDS011;58763;47.982;11.516;2023-07-20T09:08:05;5.43;;;2.22;;
71106;SDS011;58763;47.982;11.516;2023-07-20T09:10:30;4.40;;;1.85;;
71106;SDS011;58763;47.982;11.516;2023-07-20T09:12:56;4.53;;;2.10;;
71106;SDS011;58763;47.982;11.516;2023-07-20T09:15:22;4.88;;;1.90;;
71106;SDS011;58763;47.982;11.516;2023-07-20T09:17:48;5.93;;;2.22;;
71106;SDS011;58763;47.982;11.516;2023-07-20T09:20:16;5.28;;;1.80;;
71106;SDS011;58763;47.982;11.516;2023-07-20T09:22:43;5.70;;;2.05;;
71106;SDS011;58763;47.982;11.516;2023-07-20T09:27:45;5.30;;;2.08;;
71106;SDS011;58763;47.982;11.516;2023-07-20T09:30:11;5.88;;;2.10;;
71106;SDS011;58763;47.982;11.516;2023-07-20T09:32:40;6.78;;;2.08;;
71106;SDS011;58763;47.982;11.516;2023-07-20T09:35:17;4.43;;;1.95;;
71106;SDS011;58763;47.982;11.516;2023-07-20T09:37:48;3.85;;;1.67;;
71106;SDS011;58763;47.982;11.516;2023-07-20T09:40:19;5.00;;;2.38;;
71106;SDS011;58763;47.982;11.516;2023-07-20T09:42:45;4.38;;;1.70;;
71106;SDS011;58763;47.982;11.516;2023-07-20T09:45:11;5.10;;;2.25;;
71106;SDS011;58763;47.982;11.516;2023-07-20T09:47:38;5.10;;;2.05;;
71106;SDS011;58763;47.982;11.516;2023-07-20T09:50:05;4.82;;;1.98;;
71106;SDS011;58763;47.982;11.516;2023-07-20T09:52:37;4.90;;;2.03;;
71106;SDS011;58763;47.982;11.516;2023-07-20T09:55:03;6.47;;;2.20;;
71106;SDS011;58763;47.982;11.516;2023-07-20T09:57:29;5.43;;;1.98;;
71106;SDS011;58763;47.982;11.516;2023-07-20T09:59:56;5.88;;;2.08;;
71106;SDS011;58763;47.982;11.516;2023-07-20T10:02:27;4.63;;;2.30;;
71106;SDS011;58763;47.982;11.516;2023-07-20T10:05:00;4.20;;;2.00;;
71106;SDS011;58763;47.982;11.516;2023-07-20T10:07:28;4.73;;;1.80;;
71106;SDS011;58763;47.982;11.516;2023-07-20T10:09:55;4.53;;;2.05;;
71106;SDS011;58763;47.982;11.516;2023-07-20T10:12:24;4.80;;;2.00;;
71106;SDS011;58763;47.982;11.516;2023-07-20T10:14:55;4.18;;;2.15;;
71106;SDS011;58763;47.982;11.516;2023-07-20T10:17:27;4.82;;;2.17;;
71106;SDS011;58763;47.982;11.516;2023-07-20T10:19:54;4.50;;;1.95;;
71106;SDS011;58763;47.982;11.516;2023-07-20T10:22:25;4.68;;;2.00;;
71106;SDS011;58763;47.982;11.516;2023-07-20T10:24:52;9.23;;;1.85;;
71106;SDS011;58763;47.982;11.516;2023-07-20T10:27:23;4.05;;;1.70;;
71106;SDS011;58763;47.982;11.516;2023-07-20T10:29:49;4.45;;;1.75;;
71106;SDS011;58763;47.982;11.516;2023-07-20T10:32:16;5.22;;;1.98;;
71106;SDS011;58763;47.982;11.516;2023-07-20T10:34:49;3.90;;;1.80;;
71106;SDS011;58763;47.982;11.516;2023-07-20T10:40:23;4.82;;;1.70;;
71106;SDS011;58763;47.982;11.516;2023-07-20T10:42:50;4.10;;;1.70;;
71106;SDS011;58763;47.982;11.516;2023-07-20T10:45:19;4.63;;;1.60;;
71106;SDS011;58763;47.982;11.516;2023-07-20T10:47:45;5.60;;;1.42;;
71106;SDS011;58763;47.982;11.516;2023-07-20T10:50:11;7.13;;;1.35;;
71106;SDS011;58763;47.982;11.516;2023-07-20T10:52:38;5.30;;;1.90;;
71106;SDS011;58763;47.982;11.516;2023-07-20T10:55:10;5.13;;;1.70;;
71106;SDS011;58763;47.982;11.516;2023-07-20T10:57:42;5.00;;;1.50;;
71106;SDS011;58763;47.982;11.516;2023-07-20T11:00:18;4.45;;;1.60;;
71106;SDS011;58763;47.982;11.516;2023-07-20T11:02:45;3.65;;;1.30;;
71106;SDS011;58763;47.982;11.516;2023-07-20T11:05:33;4.28;;;1.73;;
71106;SDS011;58763;47.982;11.516;2023-07-20T11:08:05;3.08;;;1.30;;
71106;SDS011;58763;47.982;11.516;2023-07-20T11:11:11;5.30;;;1.65;;
71106;SDS011;58763;47.982;11.516;2023-07-20T11:14:00;4.70;;;1.80;;
71106;SDS011;58763;47.982;11.516;2023-07-20T11:19:25;4.20;;;1.63;;
71106;SDS011;58763;47.982;11.516;2023-07-20T11:21:54;4.00;;;1.58;;
71106;SDS011;58763;47.982;11.516;2023-07-20T11:24:21;3.42;;;1.52;;
71106;SDS011;58763;47.982;11.516;2023-07-20T11:26:51;4.30;;;1.70;;
71106;SDS011;58763;47.982;11.516;2023-07-20T11:29:18;4.78;;;1.50;;
71106;SDS011;58763;47.982;11.516;2023-07-20T11:31:45;4.40;;;1.60;;
71106;SDS011;58763;47.982;11.516;2023-07-20T11:34:12;4.82;;;1.70;;
71106;SDS011;58763;47.982;11.516;2023-07-20T11:36:39;3.83;;;1.65;;
71106;SDS011;58763;47.982;11.516;2023-07-20T11:39:16;3.33;;;1.38;;
71106;SDS011;58763;47.982;11.516;2023-07-20T11:41:49;3.80;;;1.67;;
71106;SDS011;58763;47.982;11.516;2023-07-20T11:44:16;3.55;;;1.60;;
71106;SDS011;58763;47.982;11.516;2023-07-20T11:46:43;3.45;;;1.48;;
71106;SDS011;58763;47.982;11.516;2023-07-20T11:49:09;3.95;;;1.40;;
71106;SDS011;58763;47.982;11.516;2023-07-20T11:51:35;3.28;;;1.50;;
71106;SDS011;58763;47.982;11.516;2023-07-20T11:54:02;3.15;;;1.50;;
71106;SDS011;58763;47.982;11.516;2023-07-20T11:56:29;3.45;;;1.45;;
71106;SDS011;58763;47.982;11.516;2023-07-20T11:58:55;4.25;;;1.58;;
71106;SDS011;58763;47.982;11.516;2023-07-20T12:01:23;3.15;;;1.30;;
71106;SDS011;58763;47.982;11.516;2023-07-20T12:03:48;4.20;;;1.50;;
71106;SDS011;58763;47.982;11.516;2023-07-20T12:06:15;4.03;;;1.63;;
71106;SDS011;58763;47.982;11.516;2023-07-20T12:08:41;5.22;;;1.40;;
71106;SDS011;58763;47.982;11.516;2023-07-20T12:11:08;3.90;;;1.65;;
71106;SDS011;58763;47.982;11.516;2023-07-20T12:13:42;3.83;;;1.65;;
71106;SDS011;58763;47.982;11.516;2023-07-20T12:16:13;3.75;;;1.60;;
71106;SDS011;58763;47.982;11.516;2023-07-20T12:18:43;3.83;;;1.67;;
71106;SDS011;58763;47.982;11.516;2023-07-20T12:21:09;4.65;;;1.83;;
71106;SDS011;58763;47.982;11.516;2023-07-20T12:23:36;4.93;;;1.42;;
71106;SDS011;58763;47.982;11.516;2023-07-20T12:26:05;3.70;;;1.33;;
71106;SDS011;58763;47.982;11.516;2023-07-20T12:28:40;4.22;;;1.55;;
71106;SDS011;58763;47.982;11.516;2023-07-20T12:31:07;3.80;;;1.40;;
71106;SDS011;58763;47.982;11.516;2023-07-20T12:33:35;5.15;;;1.60;;
71106;SDS011;58763;47.982;11.516;2023-07-20T12:36:01;4.78;;;1.63;;
71106;SDS011;58763;47.982;11.516;2023-07-20T12:38:27;4.18;;;1.67;;
71106;SDS011;58763;47.982;11.516;2023-07-20T12:40:54;6.00;;;1.25;;
71106;SDS011;58763;47.982;11.516;2023-07-20T12:43:20;5.65;;;1.50;;
71106;SDS011;58763;47.982;11.516;2023-07-20T12:45:46;4.55;;;1.50;;
71106;SDS011;58763;47.982;11.516;2023-07-20T12:48:12;5.25;;;1.60;;
71106;SDS011;58763;47.982;11.516;2023-07-20T12:50:37;3.83;;;1.40;;
71106;SDS011;58763;47.982;11.516;2023-07-20T12:53:03;4.43;;;1.65;;
71106;SDS011;58763;47.982;11.516;2023-07-20T12:55:29;2.92;;;1.30;;
71106;SDS011;58763;47.982;11.516;2023-07-20T12:57:54;4.13;;;1.42;;
71106;SDS011;58763;47.982;11.516;2023-07-20T13:00:20;4.53;;;1.10;;
71106;SDS011;58763;47.982;11.516;2023-07-20T13:02:48;3.30;;;1.33;;
71106;SDS011;58763;47.982;11.516;2023-07-20T13:05:14;3.85;;;1.75;;
71106;SDS011;58763;47.982;11.516;2023-07-20T13:07:41;3.78;;;1.63;;
71106;SDS011;58763;47.982;11.516;2023-07-20T13:10:07;3.65;;;1.40;;
71106;SDS011;58763;47.982;11.516;2023-07-20T13:12:34;3.83;;;1.40;;
71106;SDS011;58763;47.982;11.516;2023-07-20T13:15:04;5.13;;;1.30;;
71106;SDS011;58763;47.982;11.516;2023-07-20T13:17:34;4.43;;;1.60;;
71106;SDS011;58763;47.982;11.516;2023-07-20T13:20:00;2.83;;;1.38;;
71106;SDS011;58763;47.982;11.516;2023-07-20T13:22:26;5.38;;;1.60;;
71106;SDS011;58763;47.982;11.516;2023-07-20T13:24:52;5.03;;;1.55;;
71106;SDS011;58763;47.982;11.516;2023-07-20T13:27:18;5.55;;;1.17;;
71106;SDS011;58763;47.982;11.516;2023-07-20T13:29:44;4.72;;;1.52;;
71106;SDS011;58763;47.982;11.516;2023-07-20T13:32:12;2.70;;;1.17;;
71106;SDS011;58763;47.982;11.516;2023-07-20T13:34:39;3.42;;;1.30;;
71106;SDS011;58763;47.982;11.516;2023-07-20T13:37:05;4.00;;;1.33;;
71106;SDS011;58763;47.982;11.516;2023-07-20T13:39:31;3.75;;;1.35;;
71106;SDS011;58763;47.982;11.516;2023-07-20T13:41:57;3.42;;;1.35;;
71106;SDS011;58763;47.982;11.516;2023-07-20T13:44:22;2.97;;;1.23;;
71106;SDS011;58763;47.982;11.516;2023-07-20T13:46:49;3.78;;;1.23;;
71106;SDS011;58763;47.982;11.516;2023-07-20T13:49:15;3.78;;;1.38;;
71106;SDS011;58763;47.982;11.516;2023-07-20T13:51:41;3.35;;;1.23;;
71106;SDS011;58763;47.982;11.516;2023-07-20T13:54:07;2.97;;;1.30;;
71106;SDS011;58763;47.982;11.516;2023-07-20T13:56:33;3.55;;;1.63;;
71106;SDS011;58763;47.982;11.516;2023-07-20T13:58:59;3.15;;;1.33;;
71106;SDS011;58763;47.982;11.516;2023-07-20T14:01:24;5.28;;;1.58;;
71106;SDS011;58763;47.982;11.516;2023-07-20T14:03:50;4.78;;;1.33;;
71106;SDS011;58763;47.982;11.516;2023-07-20T14:06:16;3.60;;;1.40;;
71106;SDS011;58763;47.982;11.516;2023-07-20T14:08:42;3.92;;;1.50;;
71106;SDS011;58763;47.982;11.516;2023-07-20T14:11:12;5.03;;;1.50;;
71106;SDS011;58763;47.982;11.516;2023-07-20T14:13:38;3.05;;;1.30;;
71106;SDS011;58763;47.982;11.516;2023-07-20T14:16:04;2.95;;;1.23;;
71106;SDS011;58763;47.982;11.516;2023-07-20T14:18:30;2.67;;;1.15;;
71106;SDS011;58763;47.982;11.516;2023-07-20T14:20:56;3.15;;;1.20;;
71106;SDS011;58763;47.982;11.516;2023-07-20T14:23:22;3.65;;;1.33;;
71106;SDS011;58763;47.982;11.516;2023-07-20T14:25:48;3.08;;;1.15;;
71106;SDS011;58763;47.982;11.516;2023-07-20T14:28:14;5.00;;;1.30;;
71106;SDS011;58763;47.982;11.516;2023-07-20T14:30:40;4.65;;;1.10;;
71106;SDS011;58763;47.982;11.516;2023-07-20T14:33:08;3.88;;;1.20;;
71106;SDS011;58763;47.982;11.516;2023-07-20T14:35:33;5.38;;;1.35;;
71106;SDS011;58763;47.982;11.516;2023-07-20T14:37:59;3.63;;;1.20;;
71106;SDS011;58763;47.982;11.516;2023-07-20T14:40:25;3.35;;;1.08;;
71106;SDS011;58763;47.982;11.516;2023-07-20T14:42:51;3.97;;;1.45;;
71106;SDS011;58763;47.982;11.516;2023-07-20T14:45:17;4.68;;;1.38;;
71106;SDS011;58763;47.982;11.516;2023-07-20T14:47:43;3.85;;;1.55;;
71106;SDS011;58763;47.982;11.516;2023-07-20T14:50:10;7.90;;;1.42;;
71106;SDS011;58763;47.982;11.516;2023-07-20T14:52:36;3.83;;;1.60;;
71106;SDS011;58763;47.982;11.516;2023-07-20T14:55:02;4.45;;;1.55;;